Time;durP1;ratioP1;P1;durP2;ratioP2;P2;SDS_P1;SDS_P2;PMS_P1;PMS_P2;Temp;Humidity;BMP_temperature;BMP_pressure;BME280_temperature;BME280_humidity;BME280_pressure;Samples;Min_cycle;Max_cycle;Signal;HPM_P1;HPM_P2
2023/09/18 00:01:40;;;;;;;20.33;16.83;;;21.50;99.90;;;;;;5044197;28;20465;-74
2023/09/18 00:04:06;;;;;;;21.90;16.75;;;21.50;99.90;;;;;;5041072;28;20113;-74
2023/09/18 00:06:33;;;;;;;27.33;17.48;;;21.50;99.90;;;;;;5043040;28;20398;-74
2023/09/18 00:08:59;;;;;;;25.48;17.75;;;21.50;99.90;;;;;;5042711;28;20029;-74
2023/09/18 00:11:24;;;;;;;21.27;17.83;;;21.50;99.90;;;;;;5041337;28;20034;-74
2023/09/18 00:13:50;;;;;;;22.00;18.05;;;21.50;99.90;;;;;;5043852;28;20021;-75
2023/09/18 00:16:16;;;;;;;22.67;18.50;;;21.40;99.90;;;;;;5041324;28;20179;-74
2023/09/18 00:18:44;;;;;;;23.08;17.45;;;21.40;99.90;;;;;;5042538;28;20025;-74
2023/09/18 00:21:10;;;;;;;21.95;17.48;;;21.40;99.90;;;;;;5042382;28;20013;-75
2023/09/18 00:23:36;;;;;;;21.73;16.58;;;21.40;99.90;;;;;;5040563;28;20035;-74
2023/09/18 00:26:02;;;;;;;21.42;16.63;;;21.40;99.90;;;;;;5043383;28;20029;-74
2023/09/18 00:28:28;;;;;;;21.92;17.20;;;21.40;99.90;;;;;;5040214;28;20037;-74
2023/09/18 00:30:54;;;;;;;25.80;17.83;;;21.40;99.90;;;;;;5026673;28;20056;-74
2023/09/18 00:33:19;;;;;;;23.73;18.38;;;21.30;99.90;;;;;;5023147;28;20032;-74
2023/09/18 00:35:50;;;;;;;25.15;18.40;;;21.30;99.90;;;;;;5043247;28;20033;-74
2023/09/18 00:38:16;;;;;;;26.05;18.17;;;21.30;99.90;;;;;;5041559;28;20080;-74
2023/09/18 00:40:41;;;;;;;21.33;17.40;;;21.40;99.90;;;;;;5041760;28;20027;-74
2023/09/18 00:43:08;;;;;;;23.00;17.80;;;21.40;99.90;;;;;;5042884;28;20025;-74
2023/09/18 00:45:36;;;;;;;23.25;17.23;;;21.40;99.90;;;;;;5040265;28;20509;-74
2023/09/18 00:48:01;;;;;;;22.33;17.48;;;21.40;99.90;;;;;;5042620;28;20109;-74
2023/09/18 00:50:27;;;;;;;22.15;17.73;;;21.40;99.90;;;;;;5041697;28;20084;-74
2023/09/18 00:52:53;;;;;;;23.83;17.27;;;21.30;99.90;;;;;;5041737;28;20591;-74
2023/09/18 00:55:19;;;;;;;20.17;17.35;;;21.30;99.90;;;;;;5043151;28;20100;-74
2023/09/18 00:57:45;;;;;;;23.80;18.40;;;21.30;99.90;;;;;;5044248;28;20501;-74
2023/09/18 01:00:16;;;;;;;28.70;18.15;;;21.30;99.90;;;;;;5032088;28;20019;-74
2023/09/18 01:02:43;;;;;;;22.50;16.27;;;21.30;99.90;;;;;;5040536;28;20393;-74
2023/09/18 01:05:08;;;;;;;20.73;16.95;;;21.40;99.90;;;;;;5042987;28;20025;-74
2023/09/18 01:07:34;;;;;;;25.52;18.60;;;21.30;99.90;;;;;;5043405;28;20032;-74
2023/09/18 01:10:00;;;;;;;23.88;17.40;;;21.30;99.90;;;;;;5041872;28;20025;-74
2023/09/18 01:12:51;;;;;;;28.23;18.10;;;21.30;99.90;;;;;;5041677;28;20025;-74
2023/09/18 01:15:41;;;;;;;23.98;18.05;;;21.30;99.90;;;;;;5025077;28;20496;-74
2023/09/18 01:18:08;;;;;;;21.25;17.55;;;21.30;99.90;;;;;;5024635;28;20040;-74
2023/09/18 01:20:34;;;;;;;18.55;16.17;;;21.30;99.90;;;;;;5039697;28;20040;-74
2023/09/18 01:23:00;;;;;;;21.50;17.30;;;21.30;99.90;;;;;;5044144;28;20021;-74
2023/09/18 01:25:25;;;;;;;26.63;18.25;;;21.30;99.90;;;;;;5041368;28;20020;-74
2023/09/18 01:27:52;;;;;;;24.48;17.90;;;21.30;99.90;;;;;;5042707;28;20401;-74
2023/09/18 01:30:18;;;;;;;22.92;17.80;;;21.30;99.90;;;;;;5042692;28;20519;-74
2023/09/18 01:32:45;;;;;;;25.45;18.65;;;21.30;99.90;;;;;;5038637;28;20021;-74
2023/09/18 01:35:13;;;;;;;22.02;17.95;;;21.30;99.90;;;;;;5041619;28;20025;-74
2023/09/18 01:37:40;;;;;;;28.05;19.00;;;21.30;99.90;;;;;;5041495;28;20032;-74
2023/09/18 01:40:08;;;;;;;27.00;19.02;;;21.30;99.90;;;;;;5022042;28;20370;-74
2023/09/18 01:42:35;;;;;;;24.73;18.58;;;21.30;99.90;;;;;;5039699;28;20184;-74
2023/09/18 01:45:01;;;;;;;25.35;18.73;;;21.30;99.90;;;;;;5041439;28;20056;-74
2023/09/18 01:47:27;;;;;;;30.40;20.52;;;21.30;99.90;;;;;;5041601;28;20029;-74
2023/09/18 01:49:52;;;;;;;26.15;19.23;;;21.20;99.90;;;;;;5039687;28;20021;-74
2023/09/18 01:52:18;;;;;;;25.15;18.67;;;21.30;99.90;;;;;;5024444;28;20025;-74
2023/09/18 01:54:45;;;;;;;26.50;18.83;;;21.20;99.90;;;;;;5040066;28;20077;-74
2023/09/18 01:57:12;;;;;;;24.10;18.85;;;21.20;99.90;;;;;;5046689;28;20044;-75
2023/09/18 01:59:37;;;;;;;26.05;19.42;;;21.20;99.90;;;;;;5032850;28;20025;-74
2023/09/18 02:02:06;;;;;;;29.30;18.80;;;21.20;99.90;;;;;;5039056;28;20018;-74
2023/09/18 02:04:32;;;;;;;27.42;18.70;;;21.20;99.90;;;;;;5041932;28;20017;-74
2023/09/18 02:06:58;;;;;;;25.73;18.13;;;21.20;99.90;;;;;;5022796;28;20021;-74
2023/09/18 02:09:24;;;;;;;23.88;18.42;;;21.30;99.90;;;;;;5040145;28;20119;-74
2023/09/18 02:11:49;;;;;;;25.08;18.77;;;21.20;99.90;;;;;;5042154;28;20111;-74
2023/09/18 02:14:15;;;;;;;22.92;19.50;;;21.20;99.90;;;;;;5026399;28;20025;-74
2023/09/18 02:16:43;;;;;;;23.27;17.90;;;21.20;99.90;;;;;;5041487;28;20060;-74
2023/09/18 02:19:13;;;;;;;21.17;17.08;;;21.30;99.90;;;;;;5041019;28;20074;-74
2023/09/18 02:21:40;;;;;;;22.30;17.17;;;21.20;99.90;;;;;;5038974;28;20022;-74
2023/09/18 02:24:06;;;;;;;24.15;18.17;;;21.20;99.90;;;;;;5042020;28;20021;-74
2023/09/18 02:26:32;;;;;;;27.77;18.77;;;21.20;99.90;;;;;;5040670;28;20038;-74
2023/09/18 02:29:00;;;;;;;22.90;17.58;;;21.20;99.90;;;;;;5040140;28;20392;-74
2023/09/18 02:31:27;;;;;;;23.70;18.35;;;21.20;99.90;;;;;;5042228;28;20031;-74
2023/09/18 02:33:52;;;;;;;22.48;18.85;;;21.20;99.90;;;;;;5037894;28;20420;-74
2023/09/18 02:36:18;;;;;;;23.67;18.70;;;21.10;99.90;;;;;;5041030;28;20021;-74
2023/09/18 02:38:44;;;;;;;24.30;18.95;;;21.20;99.90;;;;;;5040591;28;20024;-75
2023/09/18 02:41:10;;;;;;;26.23;18.65;;;21.20;99.90;;;;;;5021813;28;20113;-74
2023/09/18 02:43:37;;;;;;;24.00;19.17;;;21.10;99.90;;;;;;5043328;28;20020;-74
2023/09/18 02:46:05;;;;;;;22.60;19.17;;;21.20;99.90;;;;;;5043214;28;20036;-74
2023/09/18 02:48:31;;;;;;;21.80;17.23;;;21.20;99.90;;;;;;5044708;28;20013;-74
2023/09/18 02:50:57;;;;;;;28.65;18.13;;;21.20;99.90;;;;;;5042959;28;20028;-74
2023/09/18 02:53:24;;;;;;;22.83;17.85;;;21.20;99.90;;;;;;5045422;28;20112;-74
2023/09/18 02:55:52;;;;;;;20.65;17.48;;;21.20;99.90;;;;;;5033696;28;20029;-74
2023/09/18 02:58:19;;;;;;;22.65;17.83;;;21.20;99.90;;;;;;5046468;28;20118;-74
2023/09/18 03:00:46;;;;;;;26.08;17.13;;;21.30;99.90;;;;;;5049489;28;20075;-74
2023/09/18 03:03:13;;;;;;;20.65;16.45;;;21.30;99.90;;;;;;5041958;28;20030;-74
2023/09/18 03:05:40;;;;;;;23.05;17.75;;;21.20;99.90;;;;;;5044601;28;20503;-74
2023/09/18 03:08:06;;;;;;;26.70;18.95;;;21.20;99.90;;;;;;5025568;28;20436;-74
2023/09/18 03:10:35;;;;;;;27.88;19.20;;;21.30;99.90;;;;;;5025129;28;20550;-74
2023/09/18 03:13:04;;;;;;;21.40;17.95;;;21.30;99.90;;;;;;5045058;28;20025;-74
2023/09/18 03:15:30;;;;;;;19.85;16.88;;;21.30;99.90;;;;;;5042961;28;20552;-74
2023/09/18 03:17:59;;;;;;;22.20;17.90;;;21.40;99.90;;;;;;5043310;28;20102;-74
2023/09/18 03:20:26;;;;;;;26.10;16.92;;;21.40;99.90;;;;;;5044812;28;20457;-74
2023/09/18 03:22:57;;;;;;;24.98;17.90;;;21.40;99.90;;;;;;5041850;28;20028;-74
2023/09/18 03:25:23;;;;;;;22.40;17.47;;;21.30;99.90;;;;;;5025431;28;20048;-74
2023/09/18 03:27:53;;;;;;;20.30;16.40;;;21.40;99.90;;;;;;5050911;28;20263;-74
2023/09/18 03:30:20;;;;;;;22.83;15.73;;;21.40;99.90;;;;;;5043915;28;20040;-74
2023/09/18 03:32:46;;;;;;;18.85;16.15;;;21.40;99.90;;;;;;5043725;28;20494;-74
2023/09/18 03:35:18;;;;;;;18.05;15.80;;;21.30;99.90;;;;;;5043430;28;20053;-74
2023/09/18 03:37:53;;;;;;;22.17;17.10;;;21.30;99.90;;;;;;5041359;28;20024;-74
2023/09/18 03:40:20;;;;;;;21.83;16.77;;;21.30;99.90;;;;;;5042984;28;20133;-74
2023/09/18 03:42:46;;;;;;;24.50;16.75;;;21.30;99.90;;;;;;5044080;28;20052;-74
2023/09/18 03:45:12;;;;;;;23.95;17.15;;;21.30;99.90;;;;;;5041291;28;20296;-74
2023/09/18 03:47:39;;;;;;;22.42;17.40;;;21.30;99.90;;;;;;5043983;28;20031;-74
2023/09/18 03:50:07;;;;;;;23.42;18.15;;;21.30;99.90;;;;;;5042881;28;20542;-72
2023/09/18 03:52:32;;;;;;;23.20;17.77;;;21.30;99.90;;;;;;5041666;28;20108;-72
2023/09/18 03:54:58;;;;;;;26.10;17.08;;;21.30;99.90;;;;;;5025478;28;20108;-72
2023/09/18 03:57:24;;;;;;;25.20;18.48;;;21.30;99.90;;;;;;5028216;28;20445;-72
2023/09/18 03:59:50;;;;;;;26.65;18.70;;;21.30;99.90;;;;;;5043271;28;20025;-72
2023/09/18 04:02:16;;;;;;;23.45;18.35;;;21.20;99.90;;;;;;5042777;28;20017;-72
2023/09/18 04:04:41;;;;;;;25.17;18.60;;;21.20;99.90;;;;;;5041452;28;20025;-72
2023/09/18 04:07:07;;;;;;;29.02;19.20;;;21.20;99.90;;;;;;5044076;28;20025;-72
2023/09/18 04:09:36;;;;;;;26.75;18.67;;;21.20;99.90;;;;;;5041508;28;20453;-72
2023/09/18 04:12:05;;;;;;;26.08;19.60;;;21.20;99.90;;;;;;5042428;28;20478;-72
2023/09/18 04:14:31;;;;;;;24.20;19.35;;;21.10;99.90;;;;;;5043550;28;20021;-73
2023/09/18 04:16:56;;;;;;;24.67;19.55;;;21.20;99.90;;;;;;5040701;28;20030;-72
2023/09/18 04:19:22;;;;;;;23.85;18.95;;;21.20;99.90;;;;;;5043475;28;20108;-72
2023/09/18 04:21:48;;;;;;;24.90;19.33;;;21.20;99.90;;;;;;5042136;28;20096;-72
2023/09/18 04:24:13;;;;;;;25.77;19.85;;;21.20;99.90;;;;;;5041605;28;20026;-72
2023/09/18 04:26:39;;;;;;;24.80;18.42;;;21.20;99.90;;;;;;5045879;28;20028;-72
2023/09/18 04:29:05;;;;;;;28.75;20.73;;;21.20;99.90;;;;;;5022816;28;20025;-72
2023/09/18 04:31:31;;;;;;;24.88;18.88;;;21.10;99.90;;;;;;5042931;28;20491;-72
2023/09/18 04:33:57;;;;;;;30.67;20.25;;;21.10;99.90;;;;;;5041957;28;20025;-72
2023/09/18 04:36:23;;;;;;;25.05;20.08;;;21.10;99.90;;;;;;5041156;28;20104;-72
2023/09/18 04:38:49;;;;;;;31.25;19.77;;;21.10;99.90;;;;;;5043557;28;20494;-72
2023/09/18 04:41:15;;;;;;;29.73;20.48;;;21.10;99.90;;;;;;5041905;28;20017;-72
2023/09/18 04:43:42;;;;;;;24.33;18.20;;;21.10;99.90;;;;;;5041363;28;20036;-73
2023/09/18 04:46:08;;;;;;;26.08;19.58;;;21.10;99.90;;;;;;5041529;28;20451;-73
2023/09/18 04:48:34;;;;;;;27.67;20.40;;;21.10;99.90;;;;;;5042980;28;20053;-72
2023/09/18 04:51:00;;;;;;;24.65;19.35;;;21.10;99.90;;;;;;5022388;28;20022;-72
2023/09/18 04:53:28;;;;;;;29.92;20.55;;;21.10;99.90;;;;;;5042627;28;20029;-72
2023/09/18 04:55:54;;;;;;;27.67;19.73;;;21.20;99.90;;;;;;5023317;28;20018;-73
2023/09/18 04:58:20;;;;;;;28.70;21.05;;;21.20;99.90;;;;;;5050904;28;20146;-73
2023/09/18 05:00:46;;;;;;;27.10;20.60;;;21.20;99.90;;;;;;5040046;28;20044;-72
2023/09/18 05:03:12;;;;;;;28.10;19.75;;;21.20;99.90;;;;;;5025029;28;20032;-72
2023/09/18 05:05:38;;;;;;;26.73;20.33;;;21.20;99.90;;;;;;5044303;28;20104;-72
2023/09/18 05:08:09;;;;;;;23.63;19.50;;;21.20;99.90;;;;;;5040936;28;20063;-72
2023/09/18 05:10:38;;;;;;;31.08;20.50;;;21.20;99.90;;;;;;5043079;28;20032;-72
2023/09/18 05:13:04;;;;;;;32.13;19.45;;;21.20;99.90;;;;;;5039157;28;20029;-72
2023/09/18 05:15:30;;;;;;;33.28;21.17;;;21.20;99.90;;;;;;5045067;28;20021;-72
2023/09/18 05:17:58;;;;;;;29.10;19.70;;;21.20;99.90;;;;;;5050916;28;20028;-72
2023/09/18 05:20:28;;;;;;;22.80;19.08;;;21.30;99.90;;;;;;5050803;28;20412;-72
2023/09/18 05:22:55;;;;;;;30.30;19.20;;;21.30;99.90;;;;;;5048634;28;20484;-72
2023/09/18 05:25:23;;;;;;;27.48;20.15;;;21.30;99.90;;;;;;5050746;28;20098;-72
2023/09/18 05:27:55;;;;;;;29.15;19.90;;;21.30;99.90;;;;;;5049998;28;20048;-72
2023/09/18 05:30:27;;;;;;;29.27;19.17;;;21.30;99.90;;;;;;5050760;28;20084;-72
2023/09/18 05:32:56;;;;;;;30.27;20.27;;;21.40;99.90;;;;;;5049569;28;20036;-72
2023/09/18 05:35:23;;;;;;;30.42;19.13;;;21.40;99.90;;;;;;5039959;28;20074;-72
2023/09/18 05:37:50;;;;;;;28.60;20.50;;;21.40;99.90;;;;;;5042159;28;20160;-72
2023/09/18 05:40:17;;;;;;;25.67;19.45;;;21.50;99.90;;;;;;5022799;28;20034;-72
2023/09/18 05:42:44;;;;;;;28.98;20.13;;;21.50;99.90;;;;;;5042373;28;20025;-73
2023/09/18 05:45:14;;;;;;;29.30;19.13;;;21.50;99.90;;;;;;5038724;28;20030;-73
2023/09/18 05:47:42;;;;;;;22.85;19.02;;;21.60;99.90;;;;;;5039260;28;20106;-73
2023/09/18 05:50:09;;;;;;;28.83;21.13;;;21.60;99.90;;;;;;5040195;28;20510;-73
2023/09/18 05:52:35;;;;;;;28.73;20.25;;;21.70;99.90;;;;;;5037236;28;20385;-72
2023/09/18 05:55:02;;;;;;;25.63;19.08;;;21.70;99.60;;;;;;5040144;28;20051;-72
2023/09/18 05:57:28;;;;;;;27.27;20.33;;;21.70;99.90;;;;;;5031185;28;20045;-72
2023/09/18 05:59:55;;;;;;;28.08;20.13;;;21.70;99.90;;;;;;5038356;28;20108;-73
2023/09/18 06:02:21;;;;;;;29.92;18.98;;;21.70;99.90;;;;;;5031480;28;20396;-73
2023/09/18 06:04:47;;;;;;;23.33;18.63;;;21.70;99.90;;;;;;5042420;28;20117;-73
2023/09/18 06:07:13;;;;;;;24.98;19.70;;;21.80;99.90;;;;;;5040592;28;20523;-72
2023/09/18 06:09:39;;;;;;;24.63;19.73;;;21.70;99.90;;;;;;5041191;28;20033;-72
2023/09/18 06:12:05;;;;;;;27.17;19.15;;;21.80;99.90;;;;;;5042742;28;20432;-73
2023/09/18 06:14:33;;;;;;;29.73;19.73;;;21.80;99.90;;;;;;5030883;28;20113;-73
2023/09/18 06:16:59;;;;;;;27.85;20.23;;;21.90;99.90;;;;;;5041848;28;20549;-72
2023/09/18 06:19:25;;;;;;;27.25;20.05;;;21.80;99.90;;;;;;5044368;28;20112;-72
2023/09/18 06:21:51;;;;;;;26.98;18.75;;;21.90;99.90;;;;;;5046528;28;20029;-73
2023/09/18 06:24:16;;;;;;;24.25;17.63;;;21.90;99.90;;;;;;5043779;28;20029;-72
2023/09/18 06:26:42;;;;;;;26.27;18.38;;;21.90;99.90;;;;;;5050823;28;20025;-72
2023/09/18 06:29:09;;;;;;;21.58;18.02;;;22.00;99.90;;;;;;5046950;28;20540;-72
2023/09/18 06:31:35;;;;;;;21.38;17.55;;;22.00;99.90;;;;;;5043002;28;20032;-73
2023/09/18 06:34:01;;;;;;;29.10;18.40;;;22.00;99.90;;;;;;5044090;28;20021;-72
2023/09/18 06:36:26;;;;;;;26.00;17.83;;;22.00;99.90;;;;;;5045275;28;20044;-73
2023/09/18 06:38:53;;;;;;;26.13;17.60;;;22.10;99.90;;;;;;5045416;28;20135;-73
2023/09/18 06:41:18;;;;;;;26.33;18.67;;;22.10;99.90;;;;;;5045674;28;20022;-73
2023/09/18 06:43:44;;;;;;;28.63;17.23;;;22.10;99.90;;;;;;5035104;28;20397;-73
2023/09/18 06:46:10;;;;;;;27.63;18.17;;;22.20;99.90;;;;;;5044677;28;20036;-73
2023/09/18 06:48:36;;;;;;;23.25;17.88;;;22.20;99.90;;;;;;5041419;28;20037;-73
2023/09/18 06:51:02;;;;;;;24.98;17.02;;;22.30;99.90;;;;;;5044348;28;20029;-73
2023/09/18 06:53:28;;;;;;;23.27;16.98;;;22.30;99.90;;;;;;5041413;28;20056;-73
2023/09/18 06:55:54;;;;;;;23.25;16.88;;;22.30;99.90;;;;;;5044953;28;20029;-74
2023/09/18 06:58:20;;;;;;;21.63;16.42;;;22.40;99.90;;;;;;5055508;28;20048;-73
2023/09/18 07:00:46;;;;;;;22.15;16.33;;;22.40;99.90;;;;;;5042020;28;20473;-73
2023/09/18 07:03:12;;;;;;;26.98;15.65;;;22.50;99.90;;;;;;5041178;28;20072;-73
2023/09/18 07:05:39;;;;;;;24.45;15.55;;;22.50;99.90;;;;;;5046743;28;20040;-73
2023/09/18 07:08:09;;;;;;;23.92;16.10;;;22.60;99.90;;;;;;5041400;28;20030;-73
2023/09/18 07:10:35;;;;;;;21.70;16.25;;;22.60;99.90;;;;;;5045328;28;20043;-73
2023/09/18 07:13:01;;;;;;;28.95;19.15;;;22.70;99.90;;;;;;5044984;28;20028;-73
2023/09/18 07:15:27;;;;;;;31.23;19.05;;;22.80;99.90;;;;;;5043355;28;20099;-73
2023/09/18 07:17:52;;;;;;;24.10;17.25;;;22.80;99.90;;;;;;5042010;28;20098;-73
2023/09/18 07:20:18;;;;;;;25.55;18.02;;;22.90;99.90;;;;;;5024352;28;20224;-73
2023/09/18 07:22:48;;;;;;;26.15;18.02;;;22.90;99.90;;;;;;5026617;28;20112;-73
2023/09/18 07:25:14;;;;;;;23.25;18.00;;;22.90;99.90;;;;;;5045331;28;20017;-73
2023/09/18 07:27:43;;;;;;;25.58;16.70;;;22.90;99.90;;;;;;5046298;28;20040;-73
2023/09/18 07:30:16;;;;;;;23.77;15.73;;;23.00;99.90;;;;;;5039996;28;20121;-73
2023/09/18 07:32:43;;;;;;;19.60;15.85;;;23.00;99.90;;;;;;5043405;28;20091;-73
2023/09/18 07:35:09;;;;;;;22.92;16.70;;;22.90;99.90;;;;;;5041012;28;20516;-73
2023/09/18 07:37:36;;;;;;;21.85;16.73;;;23.00;99.90;;;;;;5041835;28;20038;-73
2023/09/18 07:40:03;;;;;;;26.15;16.40;;;23.00;99.90;;;;;;5043577;28;20017;-73
2023/09/18 07:42:29;;;;;;;26.30;17.88;;;23.10;99.90;;;;;;5044291;28;20419;-73
2023/09/18 07:44:54;;;;;;;23.05;16.67;;;23.10;99.90;;;;;;5025811;28;20086;-73
2023/09/18 07:47:20;;;;;;;20.15;16.17;;;23.10;99.90;;;;;;5043427;28;20010;-73
2023/09/18 07:49:46;;;;;;;22.98;15.20;;;23.20;99.90;;;;;;5044487;28;20063;-73
2023/09/18 07:52:12;;;;;;;25.20;16.98;;;23.30;99.90;;;;;;5028088;28;20373;-73
2023/09/18 07:54:38;;;;;;;19.80;15.75;;;23.40;99.90;;;;;;5040746;28;20029;-73
2023/09/18 07:57:04;;;;;;;19.77;15.20;;;23.40;98.90;;;;;;5045067;28;20464;-73
2023/09/18 07:59:30;;;;;;;20.25;15.65;;;23.50;95.30;;;;;;5040944;28;20025;-73
2023/09/18 08:01:56;;;;;;;17.48;14.43;;;23.60;95.50;;;;;;5052639;28;20091;-75
2023/09/18 08:04:21;;;;;;;19.30;15.68;;;23.70;93.80;;;;;;5031079;28;20026;-74
2023/09/18 08:06:47;;;;;;;21.52;14.73;;;23.80;81.30;;;;;;5040656;28;20021;-74
2023/09/18 08:09:15;;;;;;;21.55;15.02;;;23.90;84.50;;;;;;5044926;28;20029;-74
2023/09/18 08:11:42;;;;;;;22.70;15.38;;;23.90;91.50;;;;;;5028475;28;20017;-75
2023/09/18 08:14:09;;;;;;;19.10;15.85;;;24.00;87.00;;;;;;5053214;28;20029;-75
2023/09/18 08:16:35;;;;;;;18.45;14.90;;;24.00;91.70;;;;;;5034996;28;20993;-74
2023/09/18 08:19:04;;;;;;;22.08;14.18;;;24.00;97.20;;;;;;5052659;28;20033;-75
2023/09/18 08:21:30;;;;;;;17.42;13.10;;;24.00;97.00;;;;;;5041235;28;20017;-75
2023/09/18 08:23:56;;;;;;;16.60;13.40;;;24.00;93.80;;;;;;5045018;28;20484;-74
2023/09/18 08:26:22;;;;;;;19.63;13.02;;;24.00;91.60;;;;;;5053022;28;20423;-75
2023/09/18 08:28:48;;;;;;;16.83;11.75;;;24.10;89.70;;;;;;5052567;28;20017;-75
2023/09/18 08:31:16;;;;;;;21.15;13.18;;;24.10;88.80;;;;;;5044586;28;20033;-74
2023/09/18 08:33:48;;;;;;;19.90;13.18;;;24.10;91.10;;;;;;5034414;28;20017;-75
2023/09/18 08:36:15;;;;;;;17.52;13.00;;;24.10;93.80;;;;;;5034198;28;20057;-75
2023/09/18 08:38:43;;;;;;;17.65;12.90;;;24.10;94.90;;;;;;5048514;28;20040;-75
2023/09/18 08:41:10;;;;;;;16.55;13.52;;;24.00;95.10;;;;;;5046394;28;20020;-75
2023/09/18 08:43:39;;;;;;;17.38;13.25;;;24.00;95.10;;;;;;5050380;28;20481;-75
2023/09/18 08:46:05;;;;;;;19.95;13.27;;;24.00;92.40;;;;;;5048625;28;20028;-74
2023/09/18 08:48:34;;;;;;;22.08;13.75;;;24.00;94.90;;;;;;5048561;28;20397;-75
2023/09/18 08:51:05;;;;;;;21.77;14.35;;;23.90;96.50;;;;;;5017176;28;20029;-75
2023/09/18 08:53:32;;;;;;;20.48;13.77;;;23.90;96.10;;;;;;5050966;28;20074;-75
2023/09/18 08:56:01;;;;;;;24.27;14.00;;;23.90;94.80;;;;;;5030594;28;20393;-75
2023/09/18 08:58:32;;;;;;;20.90;14.00;;;23.90;96.50;;;;;;5031934;28;20048;-75
2023/09/18 09:00:59;;;;;;;23.08;13.93;;;24.00;92.40;;;;;;5034536;28;20083;-73
2023/09/18 09:03:26;;;;;;;22.75;14.15;;;24.00;94.80;;;;;;5041433;28;20029;-73
2023/09/18 09:05:52;;;;;;;19.98;14.63;;;24.00;94.50;;;;;;5042666;28;20363;-73
2023/09/18 09:08:18;;;;;;;22.63;13.82;;;24.10;88.40;;;;;;5028304;28;20043;-73
2023/09/18 09:10:44;;;;;;;18.33;13.07;;;24.10;93.60;;;;;;5049782;28;20086;-73
2023/09/18 09:13:10;;;;;;;22.20;13.75;;;24.10;89.30;;;;;;5029438;28;20037;-73
2023/09/18 09:15:50;;;;;;;23.35;13.70;;;24.10;86.90;;;;;;5039162;28;20030;-73
2023/09/18 09:18:16;;;;;;;20.83;13.45;;;24.20;86.60;;;;;;5039613;28;20028;-73
2023/09/18 09:20:59;;;;;;;23.38;15.10;;;24.20;93.20;;;;;;5026527;28;20025;-73
2023/09/18 09:23:30;;;;;;;21.02;14.55;;;24.20;96.10;;;;;;5043716;28;20021;-73
2023/09/18 09:26:15;;;;;;;24.33;16.65;;;24.20;99.60;;;;;;5049380;28;20469;-73
2023/09/18 09:28:43;;;;;;;21.13;15.90;;;24.20;96.00;;;;;;5046972;28;20033;-73
2023/09/18 09:31:10;;;;;;;25.00;16.30;;;24.10;96.80;;;;;;5040197;28;20108;-73
2023/09/18 09:33:41;;;;;;;26.75;17.35;;;24.10;99.90;;;;;;5039487;28;20029;-73
2023/09/18 09:36:08;;;;;;;23.05;16.73;;;24.10;99.90;;;;;;5026027;28;20108;-73
2023/09/18 09:38:35;;;;;;;22.00;16.05;;;24.00;99.90;;;;;;5040906;28;20442;-73
2023/09/18 09:41:01;;;;;;;25.58;17.10;;;24.00;99.90;;;;;;5040473;28;20029;-73
2023/09/18 09:43:30;;;;;;;29.17;18.88;;;24.00;99.90;;;;;;5039278;28;20513;-73
2023/09/18 09:46:03;;;;;;;25.60;18.05;;;23.90;99.90;;;;;;5041760;28;20469;-73
2023/09/18 09:48:32;;;;;;;32.25;20.38;;;23.90;99.90;;;;;;5039515;28;20029;-72
2023/09/18 09:51:00;;;;;;;36.45;20.23;;;23.90;99.90;;;;;;5040480;28;20484;-73
2023/09/18 09:53:46;;;;;;;34.70;21.88;;;23.80;99.90;;;;;;5039022;28;20037;-73
2023/09/18 09:56:13;;;;;;;25.45;20.15;;;23.80;99.90;;;;;;5042123;28;20029;-73
2023/09/18 09:58:43;;;;;;;29.52;18.40;;;23.80;99.90;;;;;;4994555;28;1521929;-73
2023/09/18 10:01:17;;;;;;;33.50;22.58;;;23.80;99.90;;;;;;5027030;28;20472;-73
2023/09/18 10:03:44;;;;;;;28.45;21.25;;;23.80;99.90;;;;;;5046178;28;20530;-73
2023/09/18 10:06:13;;;;;;;33.47;20.75;;;23.70;99.90;;;;;;5035849;28;20071;-73
2023/09/18 10:08:40;;;;;;;29.38;20.85;;;23.70;99.90;;;;;;5033259;28;20406;-73
2023/09/18 10:11:11;;;;;;;23.10;19.95;;;23.70;99.90;;;;;;5046368;28;20029;-73
2023/09/18 10:13:52;;;;;;;28.25;20.50;;;23.70;99.90;;;;;;5051749;28;20544;-72
2023/09/18 10:16:25;;;;;;;32.95;22.08;;;23.70;99.90;;;;;;5053804;28;20029;-73
2023/09/18 10:19:13;;;;;;;30.67;21.23;;;23.60;99.90;;;;;;5045569;28;20048;-73
2023/09/18 10:21:51;;;;;;;27.67;20.42;;;23.70;99.90;;;;;;5042598;28;20108;-72
2023/09/18 10:24:31;;;;;;;26.05;20.13;;;23.70;99.90;;;;;;5046438;28;20099;-73
2023/09/18 10:26:58;;;;;;;29.92;22.48;;;23.70;99.90;;;;;;5054614;28;20021;-73
2023/09/18 10:29:25;;;;;;;29.45;23.30;;;23.70;99.90;;;;;;5035378;28;20029;-73
2023/09/18 10:31:53;;;;;;;30.73;22.33;;;23.70;99.90;;;;;;5044669;28;20151;-73
2023/09/18 10:34:19;;;;;;;26.58;20.95;;;23.70;99.90;;;;;;5039516;28;20041;-73
2023/09/18 10:36:48;;;;;;;28.88;20.55;;;23.70;99.90;;;;;;5043475;28;20029;-72
2023/09/18 10:39:19;;;;;;;28.38;21.70;;;23.70;99.90;;;;;;5043777;28;20025;-72
2023/09/18 10:41:49;;;;;;;26.90;19.67;;;23.70;99.90;;;;;;5045656;28;20029;-72
2023/09/18 10:44:18;;;;;;;26.52;20.95;;;23.80;99.90;;;;;;5030446;28;20052;-74
2023/09/18 10:46:48;;;;;;;27.33;19.45;;;23.90;99.90;;;;;;5042454;28;20032;-75
2023/09/18 10:49:18;;;;;;;27.90;19.77;;;24.00;99.90;;;;;;5044324;28;20400;-72
2023/09/18 10:51:45;;;;;;;24.63;19.63;;;24.00;99.90;;;;;;5042091;28;20026;-72
2023/09/18 10:54:15;;;;;;;24.10;18.15;;;24.10;99.90;;;;;;5043646;28;20432;-72
2023/09/18 10:56:42;;;;;;;25.55;19.73;;;24.20;99.90;;;;;;5047284;28;20041;-73
2023/09/18 10:59:08;;;;;;;20.13;17.25;;;24.20;99.90;;;;;;5040560;28;20037;-72
2023/09/18 11:01:36;;;;;;;18.05;16.15;;;24.30;99.90;;;;;;5025737;28;20040;-72
2023/09/18 11:04:06;;;;;;;26.15;17.98;;;24.30;99.90;;;;;;5040929;28;20013;-73
2023/09/18 11:06:54;;;;;;;27.23;19.02;;;24.40;99.90;;;;;;5040060;28;20017;-72
2023/09/18 11:09:25;;;;;;;20.88;17.13;;;24.40;99.90;;;;;;5021354;28;20060;-73
2023/09/18 11:11:57;;;;;;;22.83;16.70;;;24.50;99.90;;;;;;5040480;28;20430;-73
2023/09/18 11:14:40;;;;;;;18.60;15.77;;;24.50;99.90;;;;;;5042758;28;20057;-73
2023/09/18 11:17:06;;;;;;;21.10;14.50;;;24.60;99.90;;;;;;5042181;28;20402;-72
2023/09/18 11:19:31;;;;;;;20.10;13.82;;;24.60;99.90;;;;;;5045540;28;20022;-73
2023/09/18 11:22:10;;;;;;;15.48;13.55;;;24.80;98.60;;;;;;5044740;28;20025;-72
2023/09/18 11:24:35;;;;;;;18.23;13.35;;;24.90;99.90;;;;;;5043709;28;20021;-73
2023/09/18 11:27:01;;;;;;;19.23;12.15;;;25.00;94.70;;;;;;5043434;28;20105;-72
2023/09/18 11:29:31;;;;;;;16.38;12.32;;;25.20;99.90;;;;;;5045040;28;20029;-73
2023/09/18 11:31:57;;;;;;;17.23;13.32;;;25.20;99.90;;;;;;5024735;28;20486;-72
2023/09/18 11:34:31;;;;;;;15.73;12.75;;;25.20;93.10;;;;;;5043082;28;20029;-72
2023/09/18 11:36:58;;;;;;;18.77;13.55;;;25.20;72.10;;;;;;5044590;28;20096;-72
2023/09/18 11:39:36;;;;;;;14.00;11.98;;;25.30;64.80;;;;;;5024514;28;20025;-72
2023/09/18 11:42:17;;;;;;;13.57;10.48;;;25.30;42.00;;;;;;5041383;28;20489;-73
2023/09/18 11:44:46;;;;;;;18.42;9.32;;;25.30;20.80;;;;;;5042339;28;20021;-72
2023/09/18 11:47:23;;;;;;;17.60;12.23;;;25.40;39.10;;;;;;5044597;28;20028;-72
2023/09/18 11:49:56;;;;;;;16.02;12.30;;;25.50;64.10;;;;;;5034410;28;20025;-72
2023/09/18 11:52:24;;;;;;;17.23;11.88;;;25.60;39.30;;;;;;5023260;28;20542;-73
2023/09/18 11:54:50;;;;;;;15.40;10.75;;;25.60;42.40;;;;;;5033219;28;20025;-72
2023/09/18 11:57:18;;;;;;;10.85;7.60;;;25.60;21.70;;;;;;5047297;28;20136;-73
2023/09/18 11:59:46;;;;;;;10.77;9.23;;;25.60;1.00;;;;;;5044256;28;20420;-72
2023/09/18 12:02:20;;;;;;;14.70;8.43;;;25.60;1.00;;;;;;5041378;28;20025;-72
2023/09/18 12:04:49;;;;;;;11.73;7.47;;;25.70;1.00;;;;;;5042129;28;20417;-73
2023/09/18 12:07:15;;;;;;;15.82;7.30;;;25.70;1.00;;;;;;5044076;28;20064;-72
2023/09/18 12:09:41;;;;;;;13.15;7.90;;;25.80;1.00;;;;;;5041341;28;20100;-72
2023/09/18 12:12:08;;;;;;;18.20;7.53;;;25.90;1.00;;;;;;5042886;28;20442;-72
2023/09/18 12:14:34;;;;;;;13.98;7.63;;;25.90;1.00;;;;;;5043224;28;20024;-72
2023/09/18 12:17:02;;;;;;;13.45;7.13;;;25.90;1.00;;;;;;5040166;28;20389;-72
2023/09/18 12:19:28;;;;;;;14.65;7.30;;;26.00;1.00;;;;;;5041142;28;20071;-72
2023/09/18 12:21:54;;;;;;;10.95;8.02;;;26.00;1.00;;;;;;5042771;28;20104;-73
2023/09/18 12:24:24;;;;;;;12.10;7.60;;;25.90;1.00;;;;;;5042519;28;20029;-72
2023/09/18 12:26:51;;;;;;;12.27;8.35;;;26.00;1.00;;;;;;5046269;28;20078;-73
2023/09/18 12:29:18;;;;;;;12.70;8.48;;;26.00;1.00;;;;;;5041118;28;20489;-73
2023/09/18 12:31:47;;;;;;;14.38;8.27;;;26.10;1.00;;;;;;5042364;28;20080;-72